Time;durP1;ratioP1;P1;durP2;ratioP2;P2;SDS_P1;SDS_P2;PMS_P1;PMS_P2;Temp;Humidity;BMP_temperature;BMP_pressure;BME280_temperature;BME280_humidity;BME280_pressure;Samples;Min_cycle;Max_cycle;Signal;HPM_P1;HPM_P2
2020/12/13 00:00:32;;;;;;;2.25;2.05;;;15.90;64.50;;;;;;5085165;28;20020;-74
2020/12/13 00:02:59;;;;;;;2.10;1.85;;;15.80;64.80;;;;;;5089044;28;20039;-74
2020/12/13 00:05:25;;;;;;;3.42;1.50;;;15.70;64.50;;;;;;5092600;28;20048;-74
2020/12/13 00:07:53;;;;;;;2.13;1.90;;;15.60;64.80;;;;;;5084617;28;20020;-73
2020/12/13 00:10:21;;;;;;;3.72;2.03;;;15.60;64.90;;;;;;5088924;28;20025;-73
2020/12/13 00:12:48;;;;;;;4.78;2.35;;;15.60;64.80;;;;;;5094471;28;20386;-74
2020/12/13 00:15:15;;;;;;;1.88;1.70;;;15.60;64.80;;;;;;5090558;28;20085;-73
2020/12/13 00:17:41;;;;;;;2.55;2.22;;;15.60;65.00;;;;;;5091722;28;20028;-73
2020/12/13 00:20:08;;;;;;;4.78;1.70;;;15.60;64.90;;;;;;5088477;28;20081;-74
2020/12/13 00:22:34;;;;;;;2.78;1.70;;;15.50;64.70;;;;;;5082442;28;20028;-73
2020/12/13 00:25:00;;;;;;;2.83;2.38;;;15.40;64.40;;;;;;5083346;28;20073;-73
2020/12/13 00:27:27;;;;;;;1.95;1.85;;;15.40;64.30;;;;;;5096531;28;20028;-73
2020/12/13 00:29:53;;;;;;;4.07;1.92;;;15.30;64.70;;;;;;5084357;28;20073;-72
2020/12/13 00:32:20;;;;;;;2.35;2.15;;;15.30;64.70;;;;;;5097850;28;20023;-73
2020/12/13 00:34:46;;;;;;;2.20;2.10;;;15.30;65.00;;;;;;5098795;28;20028;-73
2020/12/13 00:37:13;;;;;;;2.20;1.95;;;15.30;64.50;;;;;;5094818;28;20039;-73
2020/12/13 00:39:39;;;;;;;5.63;2.65;;;15.30;64.80;;;;;;5083725;28;20028;-73
2020/12/13 00:42:06;;;;;;;2.78;2.05;;;15.30;64.80;;;;;;5094340;28;20020;-73
2020/12/13 00:44:33;;;;;;;2.20;2.00;;;15.30;64.90;;;;;;5081918;28;20450;-73
2020/12/13 00:46:59;;;;;;;1.98;1.88;;;15.30;64.80;;;;;;5093680;28;20460;-73
2020/12/13 00:49:26;;;;;;;3.80;2.67;;;15.30;64.60;;;;;;5088810;28;20039;-73
2020/12/13 00:51:53;;;;;;;3.42;1.75;;;15.30;64.40;;;;;;5091591;28;20031;-73
2020/12/13 00:54:19;;;;;;;4.30;1.80;;;15.30;64.50;;;;;;5092489;28;20024;-73
2020/12/13 00:56:46;;;;;;;1.90;1.80;;;15.30;64.50;;;;;;5081463;28;20036;-73
2020/12/13 00:59:12;;;;;;;1.83;1.60;;;15.20;64.60;;;;;;5078827;28;20024;-73
2020/12/13 01:01:38;;;;;;;2.20;2.00;;;15.30;64.60;;;;;;5081288;28;20111;-73
2020/12/13 01:04:05;;;;;;;1.60;1.50;;;15.30;64.50;;;;;;5080152;28;20103;-73
2020/12/13 01:06:31;;;;;;;4.20;2.22;;;15.30;64.40;;;;;;5088703;28;20028;-73
2020/12/13 01:08:57;;;;;;;2.00;1.80;;;15.20;64.50;;;;;;5088611;28;20028;-72
2020/12/13 01:11:26;;;;;;;2.03;1.83;;;15.20;64.40;;;;;;5097610;28;20457;-73
2020/12/13 01:13:53;;;;;;;2.83;2.45;;;15.20;64.50;;;;;;5100944;28;20081;-73
2020/12/13 01:16:20;;;;;;;5.18;3.00;;;15.20;64.40;;;;;;5096673;28;20095;-73
2020/12/13 01:18:46;;;;;;;5.22;4.22;;;15.20;64.30;;;;;;5098913;28;20049;-73
2020/12/13 01:21:20;;;;;;;7.80;3.90;;;15.10;64.20;;;;;;5085493;28;20115;-72
2020/12/13 01:23:47;;;;;;;4.90;3.35;;;15.10;64.70;;;;;;5086238;28;20024;-73
2020/12/13 01:26:14;;;;;;;4.18;3.78;;;15.00;64.50;;;;;;5107639;28;20082;-73
2020/12/13 01:28:42;;;;;;;4.65;4.13;;;15.00;64.60;;;;;;5090106;28;20031;-73
2020/12/13 01:31:13;;;;;;;3.85;3.20;;;15.00;64.60;;;;;;5086446;28;20035;-73
2020/12/13 01:33:40;;;;;;;5.78;4.90;;;15.00;64.70;;;;;;5091085;28;20031;-73
2020/12/13 01:36:11;;;;;;;5.30;4.68;;;14.90;64.70;;;;;;5088968;28;20103;-73
2020/12/13 01:38:37;;;;;;;8.10;5.75;;;14.90;64.50;;;;;;5087575;28;20027;-73
2020/12/13 01:41:04;;;;;;;7.63;4.18;;;14.90;64.60;;;;;;5090890;28;20089;-73
2020/12/13 01:43:30;;;;;;;5.03;3.72;;;14.90;64.80;;;;;;5093587;28;20052;-73
2020/12/13 01:45:57;;;;;;;5.38;3.22;;;14.90;64.90;;;;;;5091141;28;20038;-72
2020/12/13 01:48:24;;;;;;;5.53;3.42;;;14.80;64.90;;;;;;5090082;28;20016;-73
2020/12/13 01:53:33;;;;;;;5.20;3.08;;;14.70;65.30;;;;;;5086941;28;20052;-73
2020/12/13 01:56:02;;;;;;;3.63;3.10;;;14.60;65.40;;;;;;5089595;28;20032;-73
2020/12/13 01:58:40;;;;;;;6.97;3.13;;;14.60;65.20;;;;;;5095846;28;20085;-73
2020/12/13 02:01:07;;;;;;;3.30;2.40;;;14.60;65.30;;;;;;5092869;28;20035;-72
2020/12/13 02:03:54;;;;;;;5.13;2.60;;;14.40;65.60;;;;;;5092457;28;20027;-73
2020/12/13 02:06:26;;;;;;;5.82;2.45;;;14.30;65.40;;;;;;5089363;28;20032;-72
2020/12/13 02:08:53;;;;;;;;;;;14.30;65.70;;;;;;5088243;28;20426;-73
2020/12/13 02:11:19;;;;;;;6.57;2.67;;;14.40;64.70;;;;;;5087323;28;19962;-72
2020/12/13 02:13:50;;;;;;;3.55;3.25;;;14.20;65.70;;;;;;5088704;28;20021;-73
2020/12/13 02:16:19;;;;;;;7.80;3.03;;;14.10;65.80;;;;;;5093184;28;20521;-73
2020/12/13 02:18:46;;;;;;;5.80;3.22;;;14.20;65.20;;;;;;5091406;28;20024;-72
2020/12/13 02:21:13;;;;;;;5.43;4.18;;;14.20;64.50;;;;;;5092212;28;20075;-73
2020/12/13 02:23:40;;;;;;;6.15;3.42;;;14.10;65.40;;;;;;5094700;28;20019;-72
2020/12/13 02:26:11;;;;;;;6.43;3.78;;;14.00;66.00;;;;;;5092425;28;20643;-72
2020/12/13 02:28:38;;;;;;;5.80;3.30;;;13.80;65.40;;;;;;5091527;28;20080;-72
2020/12/13 02:31:05;;;;;;;4.25;3.85;;;13.70;66.30;;;;;;5094119;28;20353;-73
2020/12/13 02:33:32;;;;;;;8.02;3.80;;;13.70;66.00;;;;;;5092386;28;20031;-72
2020/12/13 02:35:59;;;;;;;16.55;5.68;;;13.60;66.50;;;;;;5084769;28;20028;-73
2020/12/13 02:38:27;;;;;;;5.95;3.35;;;13.50;66.70;;;;;;5090040;28;20081;-73
2020/12/13 02:40:54;;;;;;;3.35;3.15;;;13.50;66.80;;;;;;5097565;28;20052;-73
2020/12/13 02:43:21;;;;;;;7.53;3.03;;;13.40;66.80;;;;;;5087994;28;20028;-73
2020/12/13 02:45:47;;;;;;;3.65;2.92;;;13.40;66.90;;;;;;5086170;28;20418;-72
2020/12/13 02:48:14;;;;;;;4.57;2.97;;;13.30;66.90;;;;;;5087880;28;20411;-72
2020/12/13 02:50:40;;;;;;;3.95;2.80;;;13.30;67.20;;;;;;5092617;28;20020;-72
2020/12/13 02:53:07;;;;;;;3.92;3.25;;;13.30;67.20;;;;;;5097270;28;20058;-73
2020/12/13 02:55:33;;;;;;;4.18;3.47;;;13.30;67.00;;;;;;5096328;28;20059;-73
2020/12/13 02:57:59;;;;;;;5.53;3.00;;;13.20;67.10;;;;;;5093931;28;20031;-73
2020/12/13 03:00:26;;;;;;;5.38;3.35;;;13.20;67.10;;;;;;5093401;28;20093;-76
2020/12/13 03:02:52;;;;;;;5.57;4.38;;;13.20;66.90;;;;;;5097549;28;20110;-74
2020/12/13 03:05:19;;;;;;;7.65;4.82;;;13.20;66.90;;;;;;5090023;28;20100;-74
2020/12/13 03:07:45;;;;;;;7.82;4.50;;;13.10;67.00;;;;;;5093123;28;20448;-72
2020/12/13 03:10:12;;;;;;;5.28;4.40;;;13.10;67.00;;;;;;5087166;28;20042;-73
2020/12/13 03:12:38;;;;;;;4.55;4.03;;;13.10;66.80;;;;;;5094045;28;20027;-72
2020/12/13 03:15:04;;;;;;;9.35;5.32;;;13.10;67.10;;;;;;5088124;28;20024;-72
2020/12/13 03:17:31;;;;;;;6.10;5.50;;;13.10;66.60;;;;;;5092564;28;20430;-73
2020/12/13 03:19:57;;;;;;;5.90;4.97;;;13.00;67.30;;;;;;5092805;28;20024;-72
2020/12/13 03:22:23;;;;;;;7.25;5.40;;;12.90;67.30;;;;;;5092005;28;20104;-72
2020/12/13 03:24:50;;;;;;;12.68;5.13;;;12.90;67.80;;;;;;5091570;28;20036;-72
2020/12/13 03:27:16;;;;;;;4.05;3.65;;;12.90;67.80;;;;;;5093534;28;20124;-73
2020/12/13 03:29:45;;;;;;;6.90;4.35;;;12.80;67.60;;;;;;5091089;28;20024;-72
2020/12/13 03:32:12;;;;;;;5.97;5.32;;;12.80;67.70;;;;;;5093587;28;20020;-72
2020/12/13 03:34:38;;;;;;;6.47;5.47;;;12.80;67.50;;;;;;5085030;28;20409;-72
2020/12/13 03:37:05;;;;;;;7.55;4.95;;;12.80;67.50;;;;;;5084647;28;20085;-74
2020/12/13 03:39:31;;;;;;;6.30;5.68;;;12.70;67.50;;;;;;5093114;28;20024;-73
2020/12/13 03:41:57;;;;;;;6.95;6.25;;;12.70;67.50;;;;;;5090290;28;20027;-72
2020/12/13 03:44:24;;;;;;;8.82;7.03;;;12.60;67.50;;;;;;5088876;28;20310;-73
2020/12/13 03:46:50;;;;;;;8.80;7.10;;;12.60;66.90;;;;;;5093051;28;20081;-72
2020/12/13 03:49:17;;;;;;;9.40;7.50;;;12.50;66.60;;;;;;5089885;28;20446;-72
2020/12/13 03:51:43;;;;;;;8.82;6.88;;;12.60;66.30;;;;;;5102490;28;20020;-73
2020/12/13 03:54:10;;;;;;;9.32;5.88;;;12.50;67.70;;;;;;5095947;28;20012;-73
2020/12/13 03:56:36;;;;;;;7.90;5.13;;;12.40;68.20;;;;;;5096515;28;20029;-73
2020/12/13 03:59:02;;;;;;;9.95;6.68;;;12.30;68.50;;;;;;5098719;28;20043;-72
2020/12/13 04:01:29;;;;;;;7.90;5.68;;;12.30;68.60;;;;;;5102472;28;20032;-74
2020/12/13 04:03:55;;;;;;;10.13;5.20;;;12.30;68.40;;;;;;5092893;28;20028;-73
2020/12/13 04:06:22;;;;;;;9.73;6.20;;;12.20;68.60;;;;;;5093633;28;20480;-74
2020/12/13 04:08:48;;;;;;;6.97;6.43;;;12.30;68.20;;;;;;5098340;28;20025;-73
2020/12/13 04:11:14;;;;;;;7.38;6.20;;;12.20;67.70;;;;;;5100200;28;20320;-73
2020/12/13 04:13:41;;;;;;;6.95;5.40;;;12.20;68.10;;;;;;5099276;28;20024;-73
2020/12/13 04:16:10;;;;;;;7.07;6.03;;;12.20;68.10;;;;;;5101216;28;20026;-73
2020/12/13 04:18:37;;;;;;;11.27;6.13;;;12.10;67.80;;;;;;5101019;28;20024;-73
2020/12/13 04:21:04;;;;;;;8.95;6.43;;;12.10;67.90;;;;;;5092477;28;20107;-72
2020/12/13 04:23:31;;;;;;;9.05;7.70;;;12.10;68.00;;;;;;5096342;28;20020;-73
2020/12/13 04:25:58;;;;;;;5.80;5.25;;;12.00;68.10;;;;;;5095598;28;20349;-73
2020/12/13 04:28:24;;;;;;;7.65;5.57;;;11.90;68.80;;;;;;5099647;28;20140;-73
2020/12/13 04:30:51;;;;;;;8.80;6.50;;;11.90;68.40;;;;;;5097920;28;20026;-73
2020/12/13 04:33:17;;;;;;;7.80;6.90;;;11.90;68.00;;;;;;5093676;28;20024;-73
2020/12/13 04:35:44;;;;;;;8.95;7.28;;;11.80;67.10;;;;;;5100793;28;20028;-74
2020/12/13 04:38:10;;;;;;;6.95;6.25;;;11.80;68.10;;;;;;5097320;28;20048;-73
2020/12/13 04:40:36;;;;;;;8.48;7.28;;;11.70;68.60;;;;;;5087063;28;20028;-73
2020/12/13 04:43:03;;;;;;;12.73;9.38;;;11.70;68.40;;;;;;5089900;28;20059;-73
2020/12/13 04:45:29;;;;;;;9.68;8.27;;;11.60;68.60;;;;;;5092687;28;20025;-73
2020/12/13 04:48:09;;;;;;;11.15;9.10;;;11.60;68.30;;;;;;5092373;28;20028;-73
2020/12/13 04:50:40;;;;;;;11.43;7.80;;;11.60;67.80;;;;;;5108845;28;20449;-72
2020/12/13 04:53:10;;;;;;;6.47;5.63;;;11.50;68.40;;;;;;5097211;27;20039;-72
2020/12/13 04:55:52;;;;;;;12.68;6.35;;;11.60;69.20;;;;;;5087812;28;20020;-72
2020/12/13 04:58:21;;;;;;;8.07;5.95;;;11.50;69.70;;;;;;5096885;28;20035;-72
2020/12/13 05:00:54;;;;;;;7.40;5.32;;;11.50;70.10;;;;;;5090662;28;20048;-72
2020/12/13 05:03:23;;;;;;;15.50;6.05;;;11.50;70.90;;;;;;5091059;28;20083;-72
2020/12/13 05:05:50;;;;;;;7.63;6.90;;;11.50;70.00;;;;;;5087608;28;20453;-72
2020/12/13 05:08:17;;;;;;;6.70;6.15;;;11.50;69.40;;;;;;5092328;28;20060;-73
2020/12/13 05:10:43;;;;;;;7.15;5.78;;;11.50;69.80;;;;;;5090248;28;20027;-73
2020/12/13 05:13:11;;;;;;;7.22;5.25;;;11.50;70.00;;;;;;5092583;28;20107;-74
2020/12/13 05:15:38;;;;;;;6.10;5.32;;;11.50;69.80;;;;;;5097144;28;20024;-74
2020/12/13 05:18:05;;;;;;;5.10;4.60;;;11.50;69.90;;;;;;5094295;28;20016;-73
2020/12/13 05:20:31;;;;;;;5.22;4.72;;;11.50;69.80;;;;;;5094501;28;20449;-72
2020/12/13 05:22:59;;;;;;;8.70;4.55;;;11.50;69.70;;;;;;5084918;28;20029;-72
2020/12/13 05:25:36;;;;;;;10.30;5.38;;;11.50;69.60;;;;;;5087672;28;20114;-72
2020/12/13 05:28:12;;;;;;;9.35;4.88;;;11.40;69.40;;;;;;5093608;28;20110;-72
2020/12/13 05:30:47;;;;;;;5.15;4.75;;;11.40;69.30;;;;;;5092411;28;20031;-72
2020/12/13 05:36:02;;;;;;;9.32;5.18;;;11.40;69.20;;;;;;5089318;28;20027;-72
2020/12/13 05:38:33;;;;;;;5.95;5.35;;;11.40;68.90;;;;;;5083975;28;20059;-72
2020/12/13 05:41:01;;;;;;;5.50;5.05;;;11.30;69.70;;;;;;5087512;28;20020;-72
2020/12/13 05:43:31;;;;;;;5.10;4.70;;;11.30;69.40;;;;;;5088596;28;20046;-72
2020/12/13 05:51:39;;;;;;;7.30;6.60;;;11.40;68.00;;;;;;5092792;28;20023;-72
2020/12/13 05:54:32;;;;;;;7.28;5.25;;;11.50;67.90;;;;;;5088648;28;20016;-71
2020/12/13 05:56:59;;;;;;;5.40;4.90;;;11.40;70.40;;;;;;5090235;28;20089;-72
2020/12/13 05:59:31;;;;;;;16.70;8.07;;;11.40;70.60;;;;;;5091862;28;20417;-72
2020/12/13 06:02:02;;;;;;;6.63;6.00;;;11.50;70.00;;;;;;5090524;28;20047;-72
2020/12/13 06:04:33;;;;;;;4.68;4.28;;;11.50;70.80;;;;;;5094798;28;20514;-72
2020/12/13 06:07:05;;;;;;;5.18;4.70;;;11.60;70.50;;;;;;5087716;28;20036;-72
2020/12/13 06:09:39;;;;;;;5.35;4.10;;;11.60;70.90;;;;;;5088165;28;20169;-72
2020/12/13 06:12:12;;;;;;;4.55;4.25;;;11.60;70.10;;;;;;5085691;28;20024;-72
2020/12/13 06:14:41;;;;;;;5.78;4.35;;;11.60;70.60;;;;;;5089163;28;20020;-72
2020/12/13 06:17:08;;;;;;;4.38;3.97;;;11.60;70.70;;;;;;5087338;28;20098;-72
2020/12/13 06:19:38;;;;;;;8.98;5.63;;;11.70;70.60;;;;;;5086821;28;20349;-73
2020/12/13 06:22:04;;;;;;;5.75;5.13;;;11.70;69.90;;;;;;5084823;28;20062;-72
2020/12/13 06:24:31;;;;;;;5.80;5.18;;;11.70;69.00;;;;;;5087425;28;20043;-72
2020/12/13 06:26:59;;;;;;;7.47;5.05;;;11.80;69.50;;;;;;5096286;28;20460;-72
2020/12/13 06:29:27;;;;;;;7.93;5.22;;;11.80;68.30;;;;;;5089627;28;20031;-72
2020/12/13 06:31:54;;;;;;;6.07;5.05;;;11.80;69.00;;;;;;5097793;28;20376;-71
2020/12/13 06:34:21;;;;;;;7.68;5.45;;;11.80;69.20;;;;;;5083184;28;20031;-72
2020/12/13 06:36:47;;;;;;;6.75;6.07;;;11.90;68.30;;;;;;5088048;28;20035;-71
2020/12/13 06:39:15;;;;;;;6.75;4.78;;;11.90;69.90;;;;;;5106436;28;20035;-72
2020/12/13 06:41:47;;;;;;;7.28;3.95;;;11.90;70.10;;;;;;5110386;28;20020;-73
2020/12/13 06:44:15;;;;;;;7.57;5.22;;;11.90;70.40;;;;;;5085064;28;20353;-72
2020/12/13 06:46:44;;;;;;;5.45;4.90;;;12.00;68.70;;;;;;5083062;28;20024;-72
2020/12/13 06:49:13;;;;;;;8.75;3.92;;;12.00;68.80;;;;;;5089521;28;20041;-72
2020/12/13 06:51:41;;;;;;;4.97;4.53;;;12.00;69.90;;;;;;5094811;28;20403;-72
2020/12/13 06:54:12;;;;;;;4.38;4.05;;;11.90;70.20;;;;;;5088759;28;20046;-72
2020/12/13 06:56:40;;;;;;;9.68;3.42;;;12.00;70.50;;;;;;5093686;28;20052;-72
2020/12/13 06:59:09;;;;;;;4.80;4.30;;;11.90;70.90;;;;;;5093322;28;20118;-72
2020/12/13 07:01:43;;;;;;;6.55;4.25;;;12.00;71.00;;;;;;5089770;28;20031;-72
2020/12/13 07:04:22;;;;;;;3.08;2.88;;;12.00;71.00;;;;;;5092856;28;20115;-72
2020/12/13 07:06:55;;;;;;;4.22;3.50;;;12.00;70.80;;;;;;5085205;28;20374;-72
2020/12/13 07:09:22;;;;;;;5.22;3.50;;;12.00;70.60;;;;;;5087444;28;20514;-72
2020/12/13 07:11:51;;;;;;;4.35;3.95;;;12.10;70.50;;;;;;5090520;28;20023;-72
2020/12/13 07:14:19;;;;;;;4.30;3.90;;;12.10;69.40;;;;;;5102054;28;20106;-72
2020/12/13 07:16:47;;;;;;;12.27;5.75;;;12.10;70.20;;;;;;5105180;28;20016;-72
2020/12/13 07:19:16;;;;;;;6.85;4.88;;;12.10;70.20;;;;;;5086661;28;20115;-72
2020/12/13 07:21:45;;;;;;;3.97;3.47;;;12.10;70.30;;;;;;5085282;28;20105;-72
2020/12/13 07:24:12;;;;;;;4.30;3.75;;;12.10;70.80;;;;;;5083078;28;20099;-72
2020/12/13 07:26:40;;;;;;;6.10;4.18;;;12.10;71.20;;;;;;5087350;28;20167;-72
2020/12/13 07:29:15;;;;;;;4.20;3.85;;;12.10;70.70;;;;;;5093879;28;20111;-72
2020/12/13 07:31:45;;;;;;;5.68;4.80;;;12.10;71.00;;;;;;5080337;28;20090;-72
2020/12/13 07:34:12;;;;;;;7.80;4.95;;;12.10;69.90;;;;;;5091595;28;20024;-72
2020/12/13 07:36:39;;;;;;;9.82;6.30;;;12.20;70.30;;;;;;5094927;28;20453;-72
2020/12/13 07:39:08;;;;;;;8.07;5.25;;;12.20;69.70;;;;;;5092748;28;20040;-72
2020/12/13 07:41:34;;;;;;;6.05;5.25;;;12.20;69.90;;;;;;5094907;28;20028;-72
2020/12/13 07:44:10;;;;;;;5.13;4.25;;;12.20;70.50;;;;;;5105381;28;20023;-72
2020/12/13 07:46:37;;;;;;;5.05;4.07;;;12.10;71.10;;;;;;5084761;28;20020;-71
2020/12/13 07:49:10;;;;;;;5.70;3.90;;;12.10;71.10;;;;;;5094512;28;20466;-72
2020/12/13 07:51:42;;;;;;;8.77;3.97;;;12.10;71.10;;;;;;5090027;28;20038;-72
2020/12/13 07:54:19;;;;;;;8.88;3.90;;;12.10;70.90;;;;;;5082544;28;20024;-72
2020/12/13 07:56:57;;;;;;;6.68;3.97;;;12.10;70.60;;;;;;5090610;28;20041;-71
2020/12/13 07:59:28;;;;;;;14.70;5.20;;;12.10;70.40;;;;;;5081854;28;20365;-72
2020/12/13 08:01:57;;;;;;;7.10;4.75;;;12.20;69.60;;;;;;5098210;28;20023;-72
2020/12/13 08:04:38;;;;;;;7.10;5.18;;;12.30;69.40;;;;;;5084105;28;20047;-72
2020/12/13 08:07:08;;;;;;;5.60;5.10;;;12.20;68.90;;;;;;5086278;28;20021;-72
2020/12/13 08:09:38;;;;;;;7.90;5.05;;;12.30;68.90;;;;;;5084173;28;20012;-72
2020/12/13 08:12:05;;;;;;;15.48;6.95;;;12.30;69.00;;;;;;5090668;28;20020;-71
2020/12/13 08:14:32;;;;;;;10.30;6.30;;;12.30;68.90;;;;;;5094398;28;20024;-72
2020/12/13 08:16:58;;;;;;;6.60;6.00;;;12.20;69.00;;;;;;5095844;28;20453;-72
2020/12/13 08:19:41;;;;;;;8.60;5.47;;;12.20;69.40;;;;;;5089754;28;20042;-71
2020/12/13 08:22:29;;;;;;;7.68;5.80;;;12.20;70.50;;;;;;5088298;28;20338;-72
2020/12/13 08:24:58;;;;;;;7.15;5.43;;;12.10;70.40;;;;;;5089703;28;20028;-72
2020/12/13 08:27:28;;;;;;;5.40;4.43;;;12.10;71.30;;;;;;5078632;28;20457;-72
2020/12/13 08:29:56;;;;;;;8.15;4.63;;;12.10;71.50;;;;;;5084676;28;20024;-71
2020/12/13 08:32:23;;;;;;;8.52;4.78;;;12.20;71.10;;;;;;5094034;28;20095;-72
2020/12/13 08:34:50;;;;;;;11.70;5.00;;;12.30;70.40;;;;;;5094601;28;20024;-72
2020/12/13 08:37:24;;;;;;;4.70;4.32;;;12.30;70.90;;;;;;5096089;28;20051;-72
2020/12/13 08:39:51;;;;;;;6.18;5.05;;;12.40;70.00;;;;;;5092705;28;20024;-72
2020/12/13 08:42:24;;;;;;;8.52;5.78;;;12.40;70.00;;;;;;5096272;28;20028;-72
2020/12/13 08:44:51;;;;;;;7.03;5.07;;;12.40;71.00;;;;;;5107899;28;20035;-72
2020/12/13 08:47:19;;;;;;;7.20;4.55;;;12.30;70.30;;;;;;5098714;28;20020;-72
2020/12/13 08:49:49;;;;;;;6.47;5.65;;;12.40;70.10;;;;;;5088225;28;20064;-72
2020/12/13 08:52:21;;;;;;;6.15;5.20;;;12.40;70.00;;;;;;5096242;28;20506;-72
2020/12/13 08:54:50;;;;;;;4.88;4.43;;;12.50;70.00;;;;;;5098368;28;20020;-73
2020/12/13 08:57:36;;;;;;;4.85;4.40;;;12.50;71.30;;;;;;5094002;28;20051;-72
2020/12/13 09:00:11;;;;;;;5.15;3.83;;;12.50;71.40;;;;;;5093911;28;20085;-73
2020/12/13 09:02:38;;;;;;;10.50;5.93;;;12.50;72.10;;;;;;5086837;28;20043;-72
2020/12/13 09:05:08;;;;;;;3.90;3.50;;;12.50;72.30;;;;;;5091605;28;20028;-72
2020/12/13 09:07:35;;;;;;;4.95;3.42;;;12.60;72.60;;;;;;5098950;28;20024;-72
2020/12/13 09:10:14;;;;;;;4.22;3.55;;;12.50;72.70;;;;;;5106983;28;20020;-72
2020/12/13 09:12:41;;;;;;;5.25;4.50;;;12.60;72.20;;;;;;5097514;28;20020;-72
2020/12/13 09:15:12;;;;;;;5.05;4.28;;;12.70;71.80;;;;;;5097227;28;20054;-73
2020/12/13 09:17:40;;;;;;;5.30;4.80;;;12.70;71.40;;;;;;5087149;28;20024;-73
2020/12/13 09:20:07;;;;;;;5.03;4.63;;;12.70;71.20;;;;;;5096943;28;20115;-72
2020/12/13 09:22:34;;;;;;;8.15;4.18;;;12.80;70.80;;;;;;5100165;28;20051;-72
2020/12/13 09:25:00;;;;;;;5.95;3.80;;;12.70;71.30;;;;;;5096081;28;20449;-72
2020/12/13 09:27:28;;;;;;;8.20;3.33;;;12.70;71.60;;;;;;5087929;28;20027;-72
2020/12/13 09:29:56;;;;;;;3.80;3.45;;;12.70;71.70;;;;;;5094070;28;20039;-72
2020/12/13 09:32:23;;;;;;;5.45;3.15;;;12.70;71.40;;;;;;5094939;28;20503;-73
2020/12/13 09:34:49;;;;;;;4.00;3.45;;;12.70;71.70;;;;;;5096320;28;20045;-72
2020/12/13 09:37:18;;;;;;;5.65;4.05;;;12.70;71.40;;;;;;5092712;28;20103;-72
2020/12/13 09:39:45;;;;;;;3.58;3.28;;;12.80;71.50;;;;;;5095500;28;20480;-73
2020/12/13 09:42:13;;;;;;;5.47;4.57;;;12.80;71.40;;;;;;5096410;28;20035;-72
2020/12/13 09:44:39;;;;;;;5.45;3.53;;;12.80;71.50;;;;;;5092509;28;20020;-73
2020/12/13 09:47:07;;;;;;;3.55;3.20;;;12.80;71.70;;;;;;5086890;28;20107;-72
2020/12/13 09:49:33;;;;;;;4.60;3.25;;;12.80;71.80;;;;;;5085845;28;20795;-73
2020/12/13 09:52:02;;;;;;;6.38;2.78;;;12.90;71.90;;;;;;5096631;28;20048;-72
2020/12/13 09:54:30;;;;;;;3.20;2.90;;;12.90;72.00;;;;;;5093491;28;20020;-72
2020/12/13 09:56:57;;;;;;;4.07;2.65;;;13.00;71.80;;;;;;5095097;28;20457;-73
2020/12/13 09:59:25;;;;;;;5.13;4.35;;;13.00;71.70;;;;;;5093111;28;20028;-72
2020/12/13 10:01:51;;;;;;;3.92;3.63;;;13.00;71.40;;;;;;5084811;28;20055;-72
2020/12/13 10:04:20;;;;;;;3.83;3.53;;;13.10;70.70;;;;;;5102758;28;20035;-72
2020/12/13 10:09:19;;;;;;;7.57;3.78;;;13.10;71.50;;;;;;5104465;28;20464;-73
2020/12/13 10:11:45;;;;;;;3.75;2.92;;;13.00;71.80;;;;;;5097766;28;20504;-73
2020/12/13 10:14:13;;;;;;;11.48;3.47;;;13.10;72.00;;;;;;5105598;28;20024;-72
2020/12/13 10:16:42;;;;;;;5.10;2.95;;;13.10;72.10;;;;;;5098996;28;20022;-72
2020/12/13 10:19:09;;;;;;;3.20;3.00;;;13.10;72.30;;;;;;5094126;28;20027;-72
2020/12/13 10:21:36;;;;;;;4.25;3.10;;;13.20;72.20;;;;;;5108502;28;20051;-73
2020/12/13 10:24:04;;;;;;;12.82;3.53;;;13.20;72.20;;;;;;5092428;28;20090;-73
2020/12/13 10:26:33;;;;;;;6.28;4.03;;;13.20;71.70;;;;;;5088544;28;20123;-73
2020/12/13 10:29:00;;;;;;;3.30;2.70;;;13.20;72.10;;;;;;5100961;28;20327;-72
2020/12/13 10:31:36;;;;;;;5.38;3.40;;;13.20;71.90;;;;;;5091980;28;20028;-72
2020/12/13 10:34:06;;;;;;;3.42;3.13;;;13.30;72.00;;;;;;5096987;28;20016;-72
2020/12/13 10:36:34;;;;;;;5.72;4.80;;;13.30;72.20;;;;;;5094883;28;20028;-72
2020/12/13 10:39:03;;;;;;;8.50;5.63;;;13.30;71.30;;;;;;5090245;28;20077;-72
2020/12/13 10:41:30;;;;;;;9.57;6.35;;;13.40;71.30;;;;;;5091633;28;20027;-72
2020/12/13 10:43:56;;;;;;;5.63;5.03;;;13.40;71.00;;;;;;5097639;28;20028;-72
2020/12/13 10:46:23;;;;;;;5.25;4.82;;;13.30;71.60;;;;;;5097048;28;20061;-74
2020/12/13 10:48:49;;;;;;;6.47;5.32;;;13.30;72.00;;;;;;5094667;28;20024;-72
2020/12/13 10:51:19;;;;;;;9.90;6.63;;;13.30;71.80;;;;;;5089083;28;20044;-73
2020/12/13 10:53:46;;;;;;;6.72;5.95;;;13.30;71.50;;;;;;5093998;28;20028;-73
2020/12/13 10:56:14;;;;;;;6.88;6.05;;;13.30;72.10;;;;;;5093691;28;20473;-72
2020/12/13 10:58:41;;;;;;;6.45;5.95;;;13.30;71.70;;;;;;5093794;28;20376;-72
2020/12/13 11:01:09;;;;;;;10.30;6.35;;;13.20;72.20;;;;;;5086957;28;20358;-72
2020/12/13 11:03:35;;;;;;;18.35;9.95;;;13.10;72.70;;;;;;5092184;28;20136;-72
2020/12/13 11:06:02;;;;;;;10.27;8.93;;;13.00;73.40;;;;;;5090273;28;20110;-72
2020/12/13 11:08:28;;;;;;;9.30;8.43;;;13.00;73.20;;;;;;5086915;28;20027;-72
2020/12/13 11:10:55;;;;;;;9.85;9.02;;;13.10;73.50;;;;;;5091603;28;20085;-72
2020/12/13 11:13:21;;;;;;;10.18;7.85;;;13.10;73.10;;;;;;5087838;28;20445;-72
2020/12/13 11:15:48;;;;;;;9.40;8.43;;;13.20;72.90;;;;;;5093006;28;20035;-72
2020/12/13 11:18:14;;;;;;;8.10;7.40;;;13.10;73.30;;;;;;5093037;28;20032;-73
2020/12/13 11:20:41;;;;;;;9.88;7.95;;;13.10;73.90;;;;;;5092568;28;20414;-73
2020/12/13 11:23:08;;;;;;;8.38;7.45;;;13.00;74.50;;;;;;5093074;28;20032;-73
2020/12/13 11:25:34;;;;;;;8.73;8.02;;;13.00;74.40;;;;;;5092922;28;20042;-72
2020/12/13 11:28:02;;;;;;;8.93;7.47;;;13.10;73.40;;;;;;5093128;28;20031;-73
2020/12/13 11:30:28;;;;;;;9.20;6.85;;;13.30;72.90;;;;;;5092050;28;20454;-72
2020/12/13 11:32:55;;;;;;;8.25;7.43;;;13.30;73.00;;;;;;5090081;28;20034;-72
2020/12/13 11:35:21;;;;;;;10.23;9.18;;;13.40;72.60;;;;;;5087130;28;20030;-73
2020/12/13 11:37:47;;;;;;;7.38;6.65;;;13.40;72.80;;;;;;5092300;28;20023;-73
2020/12/13 11:40:14;;;;;;;7.38;6.68;;;13.50;72.70;;;;;;5092783;28;20453;-72
2020/12/13 11:42:41;;;;;;;7.00;6.40;;;13.50;72.40;;;;;;5090020;28;20024;-73
2020/12/13 11:45:08;;;;;;;9.38;7.38;;;13.50;72.30;;;;;;5085474;28;20462;-73
2020/12/13 11:47:35;;;;;;;8.80;8.05;;;13.60;72.00;;;;;;5093443;28;20032;-73
2020/12/13 11:50:02;;;;;;;7.57;6.65;;;13.60;71.60;;;;;;5091500;28;20077;-74
2020/12/13 11:52:28;;;;;;;6.68;6.03;;;13.60;71.50;;;;;;5093623;28;20385;-75
2020/12/13 11:54:55;;;;;;;7.90;7.07;;;13.60;72.10;;;;;;5089617;28;20099;-74
2020/12/13 11:57:21;;;;;;;8.20;5.80;;;13.50;72.40;;;;;;5093396;28;20035;-73
2020/12/13 11:59:48;;;;;;;8.95;6.57;;;13.50;72.20;;;;;;5092009;28;20343;-72
2020/12/13 12:02:14;;;;;;;6.47;5.97;;;13.60;72.20;;;;;;5092051;28;20020;-73
2020/12/13 12:04:41;;;;;;;6.40;5.75;;;13.60;72.30;;;;;;5083826;28;20032;-73
2020/12/13 12:07:07;;;;;;;7.13;6.47;;;13.60;72.00;;;;;;5094062;28;20081;-72
2020/12/13 12:09:34;;;;;;;9.48;8.45;;;13.60;72.10;;;;;;5094185;28;20024;-72
2020/12/13 12:12:00;;;;;;;8.07;7.20;;;13.70;71.50;;;;;;5095564;28;20457;-73
2020/12/13 12:14:27;;;;;;;9.63;6.78;;;13.60;71.80;;;;;;5098579;28;20099;-72
2020/12/13 12:16:53;;;;;;;11.00;7.75;;;13.50;72.30;;;;;;5097353;28;20028;-72
2020/12/13 12:19:19;;;;;;;9.18;7.43;;;13.60;71.80;;;;;;5097984;28;20032;-72
2020/12/13 12:21:50;;;;;;;9.60;6.65;;;13.50;72.40;;;;;;5092965;28;20020;-73
2020/12/13 12:24:20;;;;;;;9.55;7.68;;;13.40;73.20;;;;;;5096196;28;20028;-72
2020/12/13 12:26:50;;;;;;;7.45;6.75;;;13.40;73.20;;;;;;5096466;28;20028;-72
2020/12/13 12:29:18;;;;;;;8.18;7.38;;;13.50;72.60;;;;;;5095363;28;20039;-72
2020/12/13 12:31:49;;;;;;;8.30;6.72;;;13.30;73.60;;;;;;5096561;28;20096;-72
2020/12/13 12:34:15;;;;;;;6.75;6.15;;;13.40;72.90;;;;;;5096457;28;20441;-73
2020/12/13 12:36:42;;;;;;;7.20;6.53;;;13.50;72.60;;;;;;5096897;28;20062;-72
2020/12/13 12:39:09;;;;;;;6.57;5.97;;;13.50;72.60;;;;;;5092774;28;20473;-72
2020/12/13 12:41:35;;;;;;;6.72;6.13;;;13.60;72.70;;;;;;5095270;28;20066;-72
2020/12/13 12:44:02;;;;;;;7.93;7.13;;;13.60;72.40;;;;;;5083407;28;20028;-72
2020/12/13 12:46:29;;;;;;;6.57;5.97;;;13.70;72.10;;;;;;5093849;28;20031;-72
2020/12/13 12:48:55;;;;;;;7.43;6.75;;;13.70;72.10;;;;;;5094018;28;20058;-74
2020/12/13 12:51:27;;;;;;;5.85;4.95;;;13.70;71.90;;;;;;5095441;28;20047;-72
2020/12/13 12:53:54;;;;;;;8.80;5.53;;;13.70;71.90;;;;;;5097011;28;20027;-72
2020/12/13 12:56:21;;;;;;;11.55;5.00;;;13.70;71.90;;;;;;5092519;28;20028;-72
2020/12/13 12:59:00;;;;;;;5.05;4.65;;;13.70;72.20;;;;;;5095227;28;20028;-74
2020/12/13 13:01:38;;;;;;;6.50;4.97;;;13.70;72.40;;;;;;5098475;28;20453;-72
2020/12/13 13:04:09;;;;;;;8.95;4.70;;;13.80;72.00;;;;;;5095951;28;20032;-72